createdAt,value
2018-03-08T00:01:45.217Z,3.30
2018-03-08T00:04:13.296Z,3.30
2018-03-08T00:06:41.366Z,3.40
2018-03-08T00:09:09.413Z,3.40
2018-03-08T00:11:37.510Z,3.40
2018-03-08T00:14:05.378Z,3.40
2018-03-08T00:16:33.446Z,3.40
2018-03-08T00:19:01.518Z,3.50
2018-03-08T00:21:29.442Z,3.40
2018-03-08T00:23:57.459Z,3.40
2018-03-08T00:26:25.632Z,3.40
2018-03-08T00:28:53.531Z,3.30
2018-03-08T00:31:22.287Z,3.30
2018-03-08T00:33:50.359Z,3.30
2018-03-08T00:36:18.331Z,3.30
2018-03-08T00:38:46.340Z,3.40
2018-03-08T00:41:14.984Z,3.40
2018-03-08T00:43:43.159Z,3.30
2018-03-08T00:46:11.127Z,3.40
2018-03-08T00:48:39.108Z,3.30
2018-03-08T00:51:07.152Z,3.20
2018-03-08T00:53:35.200Z,3.20
2018-03-08T00:56:03.084Z,3.20
2018-03-08T00:58:31.169Z,3.20
2018-03-08T01:00:59.353Z,3.10
2018-03-08T01:03:28.142Z,3.10
2018-03-08T01:05:56.041Z,3.10
2018-03-08T01:08:24.797Z,2.90
2018-03-08T01:10:52.960Z,2.90
2018-03-08T01:13:20.851Z,2.90
2018-03-08T01:15:48.929Z,2.90
2018-03-08T01:18:16.981Z,2.80
2018-03-08T01:20:44.989Z,2.80
2018-03-08T01:23:13.738Z,2.70
2018-03-08T01:25:41.568Z,2.70
2018-03-08T01:28:09.424Z,2.70
2018-03-08T01:30:37.299Z,2.70
2018-03-08T01:33:05.206Z,2.60
2018-03-08T01:35:33.074Z,2.60
2018-03-08T01:38:01.042Z,2.60
2018-03-08T01:40:28.909Z,2.50
2018-03-08T01:42:56.944Z,2.50
2018-03-08T01:45:25.004Z,2.50
2018-03-08T01:47:52.892Z,2.40
2018-03-08T01:50:20.887Z,2.40
2018-03-08T01:52:48.855Z,2.40
2018-03-08T01:55:16.795Z,2.40
2018-03-08T01:57:44.690Z,2.40
2018-03-08T02:00:12.625Z,2.40
2018-03-08T02:02:40.631Z,2.40
2018-03-08T02:05:08.498Z,2.30
2018-03-08T02:07:36.466Z,2.20
2018-03-08T02:10:04.336Z,2.20
2018-03-08T02:12:32.254Z,2.10
2018-03-08T02:15:00.458Z,2.10
2018-03-08T02:17:28.521Z,2.10
2018-03-08T02:19:56.418Z,2.10
2018-03-08T02:22:24.584Z,2.10
2018-03-08T02:24:52.509Z,2.10
2018-03-08T02:27:20.428Z,2.10
2018-03-08T02:29:48.406Z,2.20
2018-03-08T02:32:16.271Z,2.20
2018-03-08T02:34:44.336Z,2.20
2018-03-08T02:37:12.468Z,2.20
2018-03-08T02:39:40.541Z,2.20
2018-03-08T02:42:08.455Z,2.10
2018-03-08T02:44:36.725Z,2.10
2018-03-08T02:47:04.799Z,2.00
2018-03-08T02:49:32.661Z,2.00
2018-03-08T02:52:00.643Z,1.90
2018-03-08T02:54:28.604Z,1.80
2018-03-08T02:56:56.467Z,1.80
2018-03-08T02:59:24.623Z,1.80
2018-03-08T03:01:52.612Z,1.80
2018-03-08T03:04:20.482Z,1.80
2018-03-08T03:06:48.612Z,1.80
2018-03-08T03:09:16.519Z,1.80
2018-03-08T03:11:44.389Z,1.70
2018-03-08T03:14:12.354Z,1.70
2018-03-08T03:16:40.222Z,1.70
2018-03-08T03:19:08.396Z,1.60
2018-03-08T03:21:36.365Z,1.60
2018-03-08T03:24:04.234Z,1.50
2018-03-08T03:26:32.135Z,1.50
2018-03-08T03:29:01.941Z,1.50
2018-03-08T03:31:30.699Z,1.50
2018-03-08T03:33:58.682Z,1.50
2018-03-08T03:36:26.637Z,1.50
2018-03-08T03:38:54.522Z,1.50
2018-03-08T03:41:22.495Z,1.50
2018-03-08T03:43:50.453Z,1.40
2018-03-08T03:46:18.262Z,1.40
2018-03-08T03:48:46.072Z,1.50
2018-03-08T03:51:13.938Z,1.50
2018-03-08T03:53:41.807Z,1.60
2018-03-08T03:56:09.674Z,1.60
2018-03-08T03:58:37.744Z,1.50
2018-03-08T04:01:07.668Z,1.50
2018-03-08T04:03:35.733Z,1.40
2018-03-08T04:06:03.598Z,1.30
2018-03-08T04:08:31.485Z,1.30
2018-03-08T04:10:59.441Z,1.30
2018-03-08T04:13:27.478Z,1.30
2018-03-08T04:15:55.285Z,1.20
2018-03-08T04:18:23.318Z,1.10
2018-03-08T04:20:51.413Z,1.10
2018-03-08T04:23:19.317Z,1.10
2018-03-08T04:25:47.966Z,0.90
2018-03-08T04:28:15.842Z,0.90
2018-03-08T04:30:44.009Z,0.90
2018-03-08T04:33:11.874Z,0.80
2018-03-08T04:35:39.854Z,0.80
2018-03-08T04:38:07.599Z,0.70
2018-03-08T04:40:35.594Z,0.70
2018-03-08T04:43:04.161Z,0.80
2018-03-08T04:45:32.141Z,0.90
2018-03-08T04:48:00.029Z,1.00
2018-03-08T04:50:28.793Z,1.20
2018-03-08T04:52:56.662Z,1.10
2018-03-08T04:55:24.624Z,1.20
2018-03-08T04:57:52.600Z,1.20
2018-03-08T05:00:20.481Z,1.20
2018-03-08T05:02:48.428Z,1.20
2018-03-08T05:05:16.522Z,1.30
2018-03-08T05:07:45.201Z,1.30
2018-03-08T05:10:13.156Z,1.30
2018-03-08T05:12:41.043Z,1.30
2018-03-08T05:15:08.826Z,1.30
2018-03-08T05:17:37.778Z,1.20
2018-03-08T05:20:05.545Z,1.20
2018-03-08T05:22:33.415Z,1.20
2018-03-08T05:25:01.353Z,1.30
2018-03-08T05:27:29.143Z,1.30
2018-03-08T05:29:57.317Z,1.30
2018-03-08T05:32:25.288Z,1.30
2018-03-08T05:34:53.294Z,1.40
2018-03-08T05:37:21.952Z,1.50
2018-03-08T05:39:49.890Z,1.40
2018-03-08T05:42:17.819Z,1.50
2018-03-08T05:44:46.466Z,1.60
2018-03-08T05:47:14.208Z,1.60
2018-03-08T05:49:42.096Z,1.60
2018-03-08T05:52:10.143Z,1.50
2018-03-08T05:54:37.934Z,1.50
2018-03-08T05:57:05.732Z,1.50
2018-03-08T05:59:34.485Z,1.50
2018-03-08T06:02:02.354Z,1.50
2018-03-08T06:04:30.238Z,1.50
2018-03-08T06:06:58.030Z,1.50
2018-03-08T06:09:26.546Z,1.60
2018-03-08T06:11:54.345Z,1.60
2018-03-08T06:14:22.030Z,1.60
2018-03-08T06:16:50.781Z,1.70
2018-03-08T06:19:18.901Z,1.60
2018-03-08T06:21:47.543Z,1.70
2018-03-08T06:24:15.345Z,1.70
2018-03-08T06:26:44.011Z,1.80
2018-03-08T06:29:11.859Z,1.80
2018-03-08T06:31:39.826Z,1.80
2018-03-08T06:34:07.795Z,1.90
2018-03-08T06:36:35.627Z,1.90
2018-03-08T06:39:03.657Z,1.90
2018-03-08T06:41:32.319Z,2.00
2018-03-08T06:44:00.367Z,2.00
2018-03-08T06:46:28.257Z,2.00
2018-03-08T06:48:56.226Z,2.10
2018-03-08T06:51:24.056Z,2.10
2018-03-08T06:53:52.044Z,2.20
2018-03-08T06:56:19.929Z,2.20
2018-03-08T06:58:47.810Z,2.40
2018-03-08T07:01:15.662Z,2.40
2018-03-08T07:03:43.494Z,2.40
2018-03-08T07:06:11.301Z,2.40
2018-03-08T07:08:39.093Z,2.40
2018-03-08T07:11:07.745Z,2.40
2018-03-08T07:13:35.642Z,2.40
2018-03-08T07:16:04.298Z,2.50
2018-03-08T07:18:32.496Z,2.40
2018-03-08T07:21:00.440Z,2.50
2018-03-08T07:23:28.363Z,2.60
2018-03-08T07:25:56.378Z,2.60
2018-03-08T07:28:24.184Z,2.60
2018-03-08T07:30:52.870Z,2.60
2018-03-08T07:33:21.618Z,2.70
2018-03-08T07:35:49.500Z,2.70
2018-03-08T07:38:17.451Z,2.80
2018-03-08T07:40:45.318Z,2.80
2018-03-08T07:43:13.011Z,2.90
2018-03-08T07:45:41.566Z,3.00
2018-03-08T07:48:09.438Z,3.00
2018-03-08T07:50:37.301Z,3.00
2018-03-08T07:53:05.008Z,3.00
2018-03-08T07:55:33.759Z,3.00
2018-03-08T07:58:01.633Z,3.00
2018-03-08T08:00:29.486Z,3.10
2018-03-08T08:02:57.700Z,3.00
2018-03-08T08:05:38.067Z,3.00
2018-03-08T08:08:18.551Z,3.00
2018-03-08T08:10:46.346Z,3.00
2018-03-08T08:13:14.316Z,3.00
2018-03-08T08:15:42.400Z,3.00
2018-03-08T08:18:10.511Z,3.10
2018-03-08T08:20:39.147Z,3.20
2018-03-08T08:23:07.116Z,3.10
2018-03-08T08:25:34.985Z,3.20
2018-03-08T08:28:02.699Z,3.20
2018-03-08T08:30:30.832Z,3.30
2018-03-08T08:32:58.477Z,3.40
2018-03-08T08:35:26.145Z,3.40
2018-03-08T08:37:53.865Z,3.50
2018-03-08T08:40:21.565Z,3.50
2018-03-08T08:42:49.354Z,3.50
2018-03-08T08:45:17.298Z,3.60
2018-03-08T08:47:44.913Z,3.60
2018-03-08T08:50:13.305Z,3.80
2018-03-08T08:52:41.104Z,3.80
2018-03-08T08:55:08.898Z,3.90
2018-03-08T08:57:36.530Z,4.10
2018-03-08T09:00:04.190Z,4.20
2018-03-08T09:02:32.093Z,4.30
2018-03-08T09:04:59.824Z,4.40
2018-03-08T09:07:27.613Z,4.50
2018-03-08T09:09:55.485Z,4.70
2018-03-08T09:12:23.121Z,4.80
2018-03-08T09:14:50.896Z,5.00
2018-03-08T09:17:18.647Z,5.10
2018-03-08T09:19:46.431Z,5.20
2018-03-08T09:22:14.290Z,5.40
2018-03-08T09:24:41.939Z,5.60
2018-03-08T09:27:09.533Z,5.70
2018-03-08T09:29:37.373Z,5.90
2018-03-08T09:32:05.260Z,6.10
2018-03-08T09:34:33.130Z,6.20
2018-03-08T09:37:00.865Z,6.30
2018-03-08T09:39:28.793Z,6.30
2018-03-08T09:41:57.440Z,6.40
2018-03-08T09:44:25.106Z,6.40
2018-03-08T09:46:52.905Z,6.30
2018-03-08T09:49:21.531Z,6.50
2018-03-08T09:51:49.725Z,6.50
2018-03-08T09:54:18.409Z,6.80
2018-03-08T09:56:46.006Z,6.70
2018-03-08T09:59:14.556Z,7.10
2018-03-08T10:01:42.310Z,7.10
2018-03-08T10:04:09.919Z,7.30
2018-03-08T10:06:38.569Z,7.40
2018-03-08T10:09:06.427Z,7.30
2018-03-08T10:11:35.069Z,7.70
2018-03-08T10:14:02.696Z,7.70
2018-03-08T10:16:30.308Z,7.90
2018-03-08T10:18:57.998Z,8.10
2018-03-08T10:21:44.375Z,8.60
2018-03-08T10:23:54.233Z,8.60
2018-03-08T10:26:22.293Z,8.90
2018-03-08T10:28:50.041Z,9.10
2018-03-08T10:31:17.733Z,9.30
2018-03-08T10:33:45.389Z,9.60
2018-03-08T10:36:13.036Z,9.70
2018-03-08T10:38:40.717Z,9.70
2018-03-08T10:41:08.379Z,9.70
2018-03-08T10:43:36.135Z,9.80
2018-03-08T10:46:03.765Z,9.80
2018-03-08T10:48:31.535Z,9.90
2018-03-08T10:50:59.386Z,10.10
2018-03-08T10:53:27.959Z,10.50
2018-03-08T10:55:56.497Z,10.70
2018-03-08T10:58:24.343Z,10.70
2018-03-08T11:00:54.868Z,11.00
2018-03-08T11:03:28.288Z,11.20
2018-03-08T11:05:56.980Z,11.40
2018-03-08T11:08:24.691Z,11.60
2018-03-08T11:10:53.267Z,11.90
2018-03-08T11:13:21.787Z,11.90
2018-03-08T11:15:49.734Z,11.90
2018-03-08T11:18:17.587Z,11.80
2018-03-08T11:20:46.054Z,11.70
2018-03-08T11:23:13.799Z,11.70
2018-03-08T11:25:41.551Z,11.80
2018-03-08T11:28:09.264Z,11.80
2018-03-08T11:30:37.814Z,12.40
2018-03-08T11:33:05.655Z,12.40
2018-03-08T11:35:33.440Z,12.50
2018-03-08T11:38:01.131Z,12.60
2018-03-08T11:40:29.655Z,13.00
2018-03-08T11:42:57.459Z,13.00
2018-03-08T11:45:25.206Z,13.20
2018-03-08T11:47:53.035Z,13.50
2018-03-08T11:50:21.852Z,13.70
2018-03-08T11:52:48.577Z,13.70
2018-03-08T11:55:16.315Z,13.50
2018-03-08T11:57:44.100Z,13.50
2018-03-08T12:00:11.870Z,13.30
2018-03-08T12:02:39.688Z,13.50
2018-03-08T12:05:07.379Z,13.70
2018-03-08T12:07:35.186Z,13.90
2018-03-08T12:10:02.974Z,14.20
2018-03-08T12:12:30.684Z,14.70
2018-03-08T12:14:58.476Z,14.90
2018-03-08T12:17:26.344Z,15.20
2018-03-08T12:19:54.106Z,15.40
2018-03-08T12:22:21.859Z,15.70
2018-03-08T12:24:49.777Z,15.70
2018-03-08T12:27:18.338Z,15.80
2018-03-08T12:29:46.115Z,15.80
2018-03-08T12:32:14.128Z,15.60
2018-03-08T12:34:42.131Z,15.60
2018-03-08T12:37:10.106Z,15.60
2018-03-08T12:39:38.172Z,15.90
2018-03-08T12:42:05.977Z,16.20
2018-03-08T12:44:34.751Z,16.90
2018-03-08T12:47:02.922Z,16.90
2018-03-08T12:49:30.767Z,17.30
2018-03-08T12:51:58.805Z,17.50
2018-03-08T12:54:26.922Z,17.60
2018-03-08T12:56:54.639Z,17.80
2018-03-08T12:59:22.333Z,17.80
2018-03-08T13:01:50.524Z,17.80
2018-03-08T13:04:18.414Z,17.60
2018-03-08T13:06:47.181Z,17.90
2018-03-08T13:09:14.950Z,17.90
2018-03-08T13:11:42.875Z,18.10
2018-03-08T13:14:10.694Z,18.00
2018-03-08T13:16:38.543Z,17.80
2018-03-08T13:19:06.338Z,17.30
2018-03-08T13:21:34.847Z,17.30
2018-03-08T13:24:02.679Z,17.30
2018-03-08T13:26:31.679Z,17.20
2018-03-08T13:29:00.228Z,17.20
2018-03-08T13:31:28.034Z,17.30
2018-03-08T13:33:56.586Z,17.60
2018-03-08T13:36:24.347Z,17.60
2018-03-08T13:38:52.207Z,17.90
2018-03-08T13:41:19.946Z,18.20
2018-03-08T13:43:47.712Z,18.40
2018-03-08T13:46:15.488Z,18.50
2018-03-08T13:48:43.230Z,18.80
2018-03-08T13:51:11.054Z,19.10
2018-03-08T13:53:38.867Z,19.30
2018-03-08T13:56:06.620Z,19.60
2018-03-08T13:58:34.426Z,20.90
2018-03-08T14:01:02.276Z,23.00
2018-03-08T14:03:30.776Z,27.20
2018-03-08T14:05:58.551Z,27.00
2018-03-08T14:08:26.399Z,28.30
2018-03-08T14:10:54.182Z,29.60
2018-03-08T14:13:21.978Z,30.70
2018-03-08T14:15:50.624Z,32.00
2018-03-08T14:18:18.415Z,32.00
2018-03-08T14:20:46.918Z,32.00
2018-03-08T14:23:14.762Z,32.00
2018-03-08T14:25:43.338Z,30.10
2018-03-08T14:28:11.149Z,30.10
2018-03-08T14:30:38.987Z,28.80
2018-03-08T14:33:06.687Z,28.20
2018-03-08T14:35:34.439Z,27.10
2018-03-08T14:38:02.193Z,26.80
2018-03-08T14:40:29.939Z,27.10
2018-03-08T14:42:58.507Z,25.00
2018-03-08T14:45:27.124Z,25.60
2018-03-08T14:47:54.983Z,25.60
2018-03-08T14:50:23.579Z,28.50
2018-03-08T14:52:51.398Z,28.50
2018-03-08T14:55:19.173Z,28.90
2018-03-08T14:57:46.926Z,28.70
2018-03-08T15:00:14.788Z,28.90
2018-03-08T15:02:42.547Z,29.30
2018-03-08T15:05:10.373Z,30.10
2018-03-08T15:07:38.170Z,29.80
2018-03-08T15:10:05.870Z,29.40
2018-03-08T15:12:34.367Z,28.30
2018-03-08T15:15:02.117Z,28.30
2018-03-08T15:17:30.597Z,28.60
2018-03-08T15:19:59.144Z,29.20
2018-03-08T15:22:26.979Z,29.10
2018-03-08T15:24:54.693Z,29.80
2018-03-08T15:27:22.520Z,29.70
2018-03-08T15:29:50.318Z,29.00
2018-03-08T15:32:18.070Z,28.40
2018-03-08T15:34:45.867Z,28.60
2018-03-08T15:37:13.666Z,28.60
2018-03-08T15:39:41.451Z,28.70
2018-03-08T15:42:09.248Z,28.50
2018-03-08T15:44:37.055Z,28.50
2018-03-08T15:47:04.799Z,28.60
2018-03-08T15:49:33.291Z,27.00
2018-03-08T15:52:01.890Z,26.20
2018-03-08T15:54:29.707Z,26.10
2018-03-08T15:56:57.426Z,25.90
2018-03-08T15:59:25.979Z,24.30
2018-03-08T16:01:54.527Z,22.10
2018-03-08T16:04:22.264Z,22.00
2018-03-08T16:10:18.274Z,19.00
2018-03-08T16:12:46.811Z,17.10
2018-03-08T16:15:14.584Z,17.00
2018-03-08T16:17:42.445Z,16.00
2018-03-08T16:20:10.423Z,14.90
2018-03-08T16:22:39.092Z,13.90
2018-03-08T16:25:06.969Z,13.90
2018-03-08T16:27:35.067Z,13.50
2018-03-08T16:30:02.808Z,13.40
2018-03-08T16:32:30.507Z,13.00
2018-03-08T16:34:59.127Z,12.40
2018-03-08T16:37:26.935Z,12.40
2018-03-08T16:39:54.720Z,12.20
2018-03-08T16:42:23.282Z,11.80
2018-03-08T16:44:51.149Z,11.80
2018-03-08T16:47:18.924Z,11.70
2018-03-08T16:49:46.735Z,11.50
2018-03-08T16:52:14.499Z,11.40
2018-03-08T16:54:42.283Z,11.40
2018-03-08T16:57:10.114Z,11.40
2018-03-08T16:59:37.968Z,11.30
2018-03-08T17:02:05.709Z,11.40
2018-03-08T17:04:33.703Z,11.50
2018-03-08T17:07:01.524Z,11.40
2018-03-08T17:09:29.288Z,11.30
2018-03-08T17:11:57.406Z,11.20
2018-03-08T17:14:26.091Z,10.90
2018-03-08T17:16:54.593Z,10.90
2018-03-08T17:19:22.454Z,10.80
2018-03-08T17:21:50.260Z,10.90
2018-03-08T17:24:18.047Z,10.70
2018-03-08T17:26:45.855Z,10.50
2018-03-08T17:29:13.579Z,10.30
2018-03-08T17:31:42.193Z,10.20
2018-03-08T17:34:09.980Z,10.10
2018-03-08T17:36:37.777Z,10.20
2018-03-08T17:39:05.680Z,10.30
2018-03-08T17:41:34.332Z,10.40
2018-03-08T17:44:02.201Z,10.40
2018-03-08T17:46:30.134Z,10.40
2018-03-08T17:48:59.356Z,9.90
2018-03-08T17:51:27.559Z,9.90
2018-03-08T17:53:56.318Z,9.90
2018-03-08T17:56:24.308Z,9.80
2018-03-08T17:58:52.171Z,9.90
2018-03-08T18:01:20.023Z,9.90
2018-03-08T18:03:48.111Z,9.80
2018-03-08T18:06:15.959Z,9.70
2018-03-08T18:08:43.666Z,9.60
2018-03-08T18:11:11.706Z,9.50
2018-03-08T18:13:39.656Z,9.40
2018-03-08T18:16:07.398Z,9.30
2018-03-08T18:18:35.143Z,9.20
2018-03-08T18:21:03.671Z,8.90
2018-03-08T18:23:31.404Z,8.80
2018-03-08T18:25:59.163Z,8.80
2018-03-08T18:28:26.864Z,8.80
2018-03-08T18:30:54.633Z,8.80
2018-03-08T18:33:22.501Z,8.80
2018-03-08T18:35:50.314Z,8.70
2018-03-08T18:38:18.891Z,8.40
2018-03-08T18:40:46.845Z,8.40
2018-03-08T18:43:14.853Z,8.30
2018-03-08T18:45:42.916Z,8.30
2018-03-08T18:48:10.756Z,8.30
2018-03-08T18:50:39.435Z,8.00
2018-03-08T18:53:07.274Z,7.90
2018-03-08T18:55:35.248Z,7.80
2018-03-08T19:01:05.937Z,7.40
2018-03-08T19:03:34.687Z,7.10
2018-03-08T19:06:02.630Z,7.10
2018-03-08T19:08:31.177Z,6.90
2018-03-08T19:10:59.693Z,6.90
2018-03-08T19:13:27.472Z,6.80
2018-03-08T19:15:55.259Z,6.90
2018-03-08T19:18:23.102Z,7.00
2018-03-08T19:20:50.864Z,6.90
2018-03-08T19:23:18.685Z,7.00
2018-03-08T19:25:46.602Z,7.10
2018-03-08T19:28:14.343Z,7.10
2018-03-08T19:30:42.203Z,7.10
2018-03-08T19:33:09.986Z,7.10
2018-03-08T19:35:37.753Z,7.10
2018-03-08T19:38:05.498Z,7.10
2018-03-08T19:40:33.279Z,7.00
2018-03-08T19:43:01.119Z,7.00
2018-03-08T19:45:29.694Z,6.90
2018-03-08T19:47:58.232Z,6.90
2018-03-08T19:50:25.989Z,6.90
2018-03-08T19:52:53.796Z,6.90
2018-03-08T19:55:21.596Z,6.80
2018-03-08T19:57:49.391Z,6.80
2018-03-08T20:00:17.160Z,6.70
2018-03-08T20:02:45.020Z,6.60
2018-03-08T20:05:12.756Z,6.60
2018-03-08T20:07:40.561Z,6.60
2018-03-08T20:10:08.304Z,6.50
2018-03-08T20:12:36.053Z,6.40
2018-03-08T20:15:03.852Z,6.20
2018-03-08T20:17:31.555Z,6.10
2018-03-08T20:20:00.113Z,5.90
2018-03-08T20:22:27.935Z,5.90
2018-03-08T20:24:55.674Z,5.70
2018-03-08T20:27:23.496Z,5.50
2018-03-08T20:29:51.344Z,5.40
2018-03-08T20:32:19.066Z,5.20
2018-03-08T20:34:47.560Z,5.00
2018-03-08T20:37:15.437Z,5.00
2018-03-08T20:39:43.217Z,5.10
2018-03-08T20:42:11.819Z,5.00
2018-03-08T20:44:39.586Z,5.00
2018-03-08T20:47:07.302Z,5.00
2018-03-08T20:49:34.987Z,5.00
2018-03-08T20:52:02.809Z,5.10
2018-03-08T20:54:31.334Z,5.00
2018-03-08T20:56:59.086Z,5.00
2018-03-08T20:59:26.990Z,5.00
2018-03-08T21:01:54.851Z,4.80
2018-03-08T21:04:22.821Z,4.60
2018-03-08T21:06:50.615Z,4.60
2018-03-08T21:09:19.276Z,4.70
2018-03-08T21:11:47.142Z,4.60
2018-03-08T21:14:15.112Z,4.70
2018-03-08T21:16:43.015Z,4.80
2018-03-08T21:19:11.700Z,4.70
2018-03-08T21:21:40.379Z,4.70
2018-03-08T21:24:08.214Z,4.60
2018-03-08T21:26:35.980Z,4.60
2018-03-08T21:29:04.570Z,4.60
2018-03-08T21:31:32.435Z,4.60
2018-03-08T21:34:00.194Z,4.60
2018-03-08T21:36:27.952Z,4.60
2018-03-08T21:38:55.748Z,4.60
2018-03-08T21:41:23.496Z,4.50
2018-03-08T21:43:51.313Z,4.40
2018-03-08T21:46:19.226Z,4.40
2018-03-08T21:48:47.094Z,4.30
2018-03-08T21:51:15.059Z,4.30
2018-03-08T21:53:42.966Z,4.30
2018-03-08T21:56:11.611Z,4.30
2018-03-08T21:58:39.580Z,4.20
2018-03-08T22:01:07.552Z,4.30
2018-03-08T22:03:35.440Z,4.20
2018-03-08T22:06:03.296Z,4.20
2018-03-08T22:08:31.160Z,4.20
2018-03-08T22:10:59.122Z,4.10
2018-03-08T22:13:27.194Z,4.10
2018-03-08T22:15:55.061Z,4.10
2018-03-08T22:18:23.030Z,4.10
2018-03-08T22:20:50.897Z,4.10
2018-03-08T22:23:18.766Z,4.10
2018-03-08T22:25:46.638Z,3.90
2018-03-08T22:28:14.703Z,3.80
2018-03-08T22:30:42.631Z,3.80
2018-03-08T22:33:10.855Z,3.70
2018-03-08T22:35:38.900Z,3.60
2018-03-08T22:38:06.716Z,3.40
2018-03-08T22:40:35.316Z,3.20
2018-03-08T22:43:04.620Z,3.20
2018-03-08T22:45:32.267Z,3.20
2018-03-08T22:48:00.913Z,3.20
2018-03-08T22:50:28.878Z,3.20
2018-03-08T22:52:56.649Z,3.30
2018-03-08T22:55:24.686Z,3.40
2018-03-08T22:57:52.531Z,3.30
2018-03-08T23:00:21.706Z,3.30
2018-03-08T23:02:49.566Z,3.30
2018-03-08T23:05:17.318Z,3.20
2018-03-08T23:07:44.918Z,3.20
2018-03-08T23:10:13.466Z,3.10
2018-03-08T23:12:41.095Z,3.10
2018-03-08T23:15:08.773Z,3.10
2018-03-08T23:17:36.459Z,3.10
2018-03-08T23:20:04.316Z,3.20
2018-03-08T23:22:32.147Z,3.20
2018-03-08T23:24:59.876Z,3.10
2018-03-08T23:27:28.503Z,2.90
2018-03-08T23:29:56.322Z,2.90
2018-03-08T23:32:24.874Z,2.80
2018-03-08T23:34:53.019Z,2.70
2018-03-08T23:37:20.812Z,2.60
2018-03-08T23:39:48.562Z,2.50
2018-03-08T23:42:16.415Z,2.40
2018-03-08T23:44:44.179Z,2.40
2018-03-08T23:47:11.917Z,2.40
2018-03-08T23:49:40.490Z,2.50
2018-03-08T23:52:08.938Z,2.50
2018-03-08T23:54:36.727Z,2.50
2018-03-08T23:57:04.471Z,2.50
2018-03-08T23:59:32.934Z,2.60
